createdAt,value
2019-02-19T00:04:14.833Z,14.33
2019-02-19T00:09:00.592Z,13.50
2019-02-19T00:13:48.273Z,13.97
2019-02-19T00:18:34.204Z,12.40
2019-02-19T00:23:19.922Z,4.07
2019-02-19T00:28:05.780Z,4.33
2019-02-19T00:32:51.855Z,8.97
2019-02-19T00:37:37.772Z,6.90
2019-02-19T00:42:23.649Z,11.07
2019-02-19T00:47:09.470Z,9.93
2019-02-19T00:51:55.277Z,13.87
2019-02-19T00:56:41.075Z,13.17
2019-02-19T01:01:26.859Z,12.10
2019-02-19T01:06:12.999Z,11.93
2019-02-19T01:10:58.748Z,11.43
2019-02-19T01:15:44.684Z,11.17
2019-02-19T01:20:30.662Z,11.20
2019-02-19T01:25:16.544Z,8.90
2019-02-19T01:30:02.339Z,8.30
2019-02-19T01:34:48.097Z,7.43
2019-02-19T01:39:33.837Z,8.00
2019-02-19T01:44:19.538Z,7.53
2019-02-19T01:49:05.274Z,8.27
2019-02-19T01:53:51.074Z,8.23
2019-02-19T01:58:36.873Z,9.33
2019-02-19T02:03:22.683Z,8.83
2019-02-19T02:08:08.445Z,9.20
2019-02-19T02:12:54.241Z,8.50
2019-02-19T02:17:39.953Z,10.27
2019-02-19T02:22:25.687Z,10.27
2019-02-19T02:27:11.636Z,11.10
2019-02-19T02:31:57.570Z,11.40
2019-02-19T02:36:43.357Z,11.50
2019-02-19T02:41:29.177Z,8.40
2019-02-19T02:46:15.026Z,9.43
2019-02-19T02:51:00.860Z,8.80
2019-02-19T02:55:46.720Z,9.03
2019-02-19T03:00:33.477Z,8.60
2019-02-19T03:05:19.259Z,7.93
2019-02-19T03:10:05.263Z,9.00
2019-02-19T03:15:11.835Z,8.57
2019-02-19T03:19:57.644Z,8.10
2019-02-19T03:24:43.492Z,7.47
2019-02-19T03:29:29.443Z,7.60
2019-02-19T03:34:15.406Z,7.87
2019-02-19T03:39:01.173Z,6.70
2019-02-19T03:43:46.976Z,7.60
2019-02-19T03:48:33.153Z,7.77
2019-02-19T03:53:19.870Z,7.47
2019-02-19T03:58:05.725Z,7.10
2019-02-19T04:02:51.573Z,7.47
2019-02-19T04:07:37.592Z,6.77
2019-02-19T04:12:23.712Z,6.23
2019-02-19T04:17:09.487Z,6.20
2019-02-19T04:21:55.470Z,7.17
2019-02-19T04:26:41.203Z,6.63
2019-02-19T04:31:26.941Z,6.60
2019-02-19T04:36:12.929Z,7.17
2019-02-19T04:40:58.904Z,7.50
2019-02-19T04:45:44.663Z,7.10
2019-02-19T04:50:30.629Z,4.60
2019-02-19T04:55:16.583Z,3.07
2019-02-19T05:00:02.338Z,4.70
2019-02-19T05:04:48.050Z,4.80
2019-02-19T05:09:34.174Z,4.97
2019-02-19T05:14:22.306Z,5.77
2019-02-19T05:19:08.130Z,4.93
2019-02-19T05:23:53.940Z,3.67
2019-02-19T05:28:39.721Z,3.97
2019-02-19T05:33:25.461Z,2.70
2019-02-19T05:38:11.241Z,5.37
2019-02-19T05:42:57.021Z,15.83
2019-02-19T05:47:42.906Z,4.60
2019-02-19T05:52:28.626Z,4.27
2019-02-19T05:57:14.541Z,3.20
2019-02-19T06:02:00.240Z,2.87
2019-02-19T06:06:46.016Z,3.70
2019-02-19T06:11:31.754Z,5.80
2019-02-19T06:16:18.152Z,5.70
2019-02-19T06:21:03.946Z,5.03
2019-02-19T06:25:49.701Z,4.70
2019-02-19T06:30:35.520Z,4.80
2019-02-19T06:35:21.323Z,4.70
2019-02-19T06:40:07.416Z,4.10
2019-02-19T06:44:53.121Z,4.00
2019-02-19T06:49:38.934Z,4.40
2019-02-19T06:54:24.715Z,4.30
2019-02-19T06:59:10.714Z,4.00
2019-02-19T07:03:59.985Z,2.97
2019-02-19T07:08:45.838Z,3.70
2019-02-19T07:13:31.747Z,3.03
2019-02-19T07:18:17.567Z,3.23
2019-02-19T07:23:03.289Z,2.90
2019-02-19T07:27:49.029Z,3.50
2019-02-19T07:32:34.727Z,3.07
2019-02-19T07:37:20.714Z,3.97
2019-02-19T07:42:06.614Z,3.43
2019-02-19T07:46:52.386Z,4.50
2019-02-19T07:51:38.089Z,4.60
2019-02-19T07:56:24.177Z,7.30
2019-02-19T08:01:10.005Z,8.07
2019-02-19T08:05:56.007Z,6.90
2019-02-19T08:10:41.812Z,7.33
2019-02-19T08:15:27.640Z,7.53
2019-02-19T08:20:16.222Z,7.47
2019-02-19T08:25:00.813Z,6.30
2019-02-19T08:29:46.522Z,6.83
2019-02-19T08:34:32.339Z,7.40
2019-02-19T08:39:18.229Z,5.73
2019-02-19T08:44:04.051Z,5.03
2019-02-19T08:48:50.012Z,4.87
2019-02-19T08:53:35.804Z,5.93
2019-02-19T08:58:21.530Z,6.40
2019-02-19T09:03:07.316Z,5.67
2019-02-19T09:07:53.154Z,5.43
2019-02-19T09:12:38.996Z,6.70
2019-02-19T09:17:24.725Z,5.33
2019-02-19T09:22:10.485Z,6.20
2019-02-19T09:26:56.283Z,5.80
2019-02-19T09:31:42.020Z,5.07
2019-02-19T09:36:27.769Z,4.03
2019-02-19T09:41:13.560Z,4.07
2019-02-19T09:45:59.274Z,5.07
2019-02-19T09:50:45.039Z,5.13
2019-02-19T09:55:30.816Z,4.13
2019-02-19T10:00:16.639Z,3.83
2019-02-19T10:05:02.387Z,4.73
2019-02-19T10:09:48.177Z,6.27
2019-02-19T10:14:34.089Z,4.63
2019-02-19T10:19:19.778Z,5.20
2019-02-19T10:24:07.564Z,5.30
2019-02-19T10:28:53.382Z,4.87
2019-02-19T10:33:39.132Z,5.07
2019-02-19T10:38:24.939Z,5.17
2019-02-19T10:43:10.756Z,5.10
2019-02-19T10:47:56.519Z,5.30
2019-02-19T10:52:42.336Z,5.60
2019-02-19T10:57:28.079Z,4.67
2019-02-19T11:02:14.701Z,5.33
2019-02-19T11:07:00.481Z,5.33
2019-02-19T11:11:46.253Z,4.97
2019-02-19T11:16:32.190Z,4.90
2019-02-19T11:21:19.863Z,4.33
2019-02-19T11:26:05.659Z,5.08
2019-02-19T11:30:51.598Z,4.42
2019-02-19T11:35:38.451Z,4.37
2019-02-19T11:40:25.755Z,3.47
2019-02-19T11:45:13.435Z,3.30
2019-02-19T11:49:59.227Z,3.80
2019-02-19T11:54:44.964Z,4.22
2019-02-19T11:59:30.813Z,4.40
2019-02-19T12:04:16.720Z,5.25
2019-02-19T12:09:02.618Z,5.30
2019-02-19T12:13:48.375Z,5.65
2019-02-19T12:18:34.123Z,5.00
2019-02-19T12:23:19.935Z,4.35
2019-02-19T12:28:05.865Z,6.22
2019-02-19T12:32:52.398Z,5.72
2019-02-19T12:37:38.491Z,6.03
2019-02-19T12:42:24.361Z,5.47
2019-02-19T12:47:10.375Z,5.70
2019-02-19T12:51:56.600Z,5.58
2019-02-19T12:56:43.075Z,5.30
2019-02-19T13:01:29.316Z,4.87
2019-02-19T13:06:15.054Z,4.83
2019-02-19T13:11:20.090Z,5.10
2019-02-19T13:16:06.119Z,4.85
2019-02-19T13:20:52.122Z,5.72
2019-02-19T13:25:37.821Z,5.30
2019-02-19T13:30:42.560Z,4.70
2019-02-19T13:35:28.603Z,5.25
2019-02-19T13:40:15.268Z,5.05
2019-02-19T13:45:01.223Z,4.55
2019-02-19T13:49:47.295Z,4.83
2019-02-19T13:54:40.768Z,4.90
2019-02-19T13:59:27.462Z,5.28
2019-02-19T14:04:13.364Z,4.72
2019-02-19T14:08:59.130Z,5.42
2019-02-19T14:13:51.853Z,6.03
2019-02-19T14:18:54.810Z,5.30
2019-02-19T14:24:02.488Z,4.97
2019-02-19T14:29:13.435Z,5.00
2019-02-19T14:34:17.271Z,4.50
2019-02-19T14:39:25.247Z,5.25
2019-02-19T14:44:28.604Z,4.83
2019-02-19T14:49:37.277Z,4.83
2019-02-19T14:54:45.690Z,4.42
2019-02-19T14:59:47.815Z,4.83
2019-02-19T15:05:01.777Z,5.03
2019-02-19T15:10:09.478Z,5.53
2019-02-19T15:15:23.354Z,5.05
2019-02-19T15:20:23.223Z,4.75
2019-02-19T15:25:40.089Z,6.00
2019-02-19T15:31:02.863Z,5.45
2019-02-19T15:36:06.461Z,5.72
2019-02-19T15:41:26.118Z,5.58
2019-02-19T15:46:30.777Z,6.33
2019-02-19T15:51:31.480Z,5.27
2019-02-19T15:56:39.188Z,6.70
2019-02-19T16:01:53.096Z,7.03
2019-02-19T16:06:48.510Z,8.30
2019-02-19T16:12:05.267Z,8.87
2019-02-19T16:17:25.080Z,7.73
2019-02-19T16:22:18.324Z,8.30
2019-02-19T16:27:38.267Z,8.67
2019-02-19T16:32:56.451Z,9.97
2019-02-19T16:37:59.956Z,9.13
2019-02-19T16:43:07.810Z,9.13
2019-02-19T16:48:18.701Z,9.90
2019-02-19T16:53:32.680Z,8.87
2019-02-19T16:58:29.748Z,9.10
2019-02-19T17:03:36.780Z,8.90
2019-02-19T17:08:40.202Z,9.80
2019-02-19T17:13:45.199Z,7.67
2019-02-19T17:18:50.250Z,9.67
2019-02-19T17:24:07.383Z,7.87
2019-02-19T17:29:03.581Z,9.83
2019-02-19T17:34:17.449Z,9.03
2019-02-19T17:39:34.700Z,9.10
2019-02-19T17:44:31.031Z,8.30
2019-02-19T17:49:32.504Z,9.57
2019-02-19T17:54:25.966Z,11.10
2019-02-19T17:59:30.825Z,10.03
2019-02-19T18:04:39.166Z,9.50
2019-02-19T18:09:59.929Z,10.53
2019-02-19T18:15:03.243Z,11.73
2019-02-19T18:19:49.244Z,11.53
2019-02-19T18:24:35.345Z,11.07
2019-02-19T18:29:23.159Z,9.10
2019-02-19T18:34:09.265Z,7.20
2019-02-19T18:38:55.499Z,7.50
2019-02-19T18:43:41.409Z,7.33
2019-02-19T18:48:27.566Z,9.30
2019-02-19T18:53:13.718Z,8.23
2019-02-19T18:57:59.650Z,6.37
2019-02-19T19:02:45.558Z,7.53
2019-02-19T19:07:31.370Z,8.87
2019-02-19T19:12:17.213Z,6.77
2019-02-19T19:17:03.631Z,6.97
2019-02-19T19:21:51.502Z,7.77
2019-02-19T19:26:37.550Z,6.83
2019-02-19T19:31:23.361Z,6.63
2019-02-19T19:36:09.705Z,6.97
2019-02-19T19:40:55.891Z,5.53
2019-02-19T19:45:42.006Z,5.70
2019-02-19T19:50:28.081Z,5.87
2019-02-19T19:55:14.087Z,9.07
2019-02-19T20:00:00.299Z,8.73
2019-02-19T20:04:46.707Z,6.40
2019-02-19T20:09:33.992Z,6.93
2019-02-19T20:14:20.340Z,4.97
2019-02-19T20:19:09.957Z,5.10
2019-02-19T20:23:56.373Z,5.23
2019-02-19T20:28:42.402Z,5.00
2019-02-19T20:33:28.904Z,5.10
2019-02-19T20:38:15.115Z,5.53
2019-02-19T20:43:01.356Z,5.73
2019-02-19T20:47:47.660Z,6.80
2019-02-19T20:52:33.873Z,6.43
2019-02-19T20:57:20.064Z,5.97
2019-02-19T21:02:06.417Z,5.77
2019-02-19T21:06:52.407Z,5.50
2019-02-19T21:11:38.570Z,5.63
2019-02-19T21:16:24.706Z,5.00
2019-02-19T21:21:10.805Z,5.03
2019-02-19T21:25:56.906Z,5.23
2019-02-19T21:30:45.295Z,4.50
2019-02-19T21:35:31.313Z,4.77
2019-02-19T21:40:17.304Z,4.50
2019-02-19T21:45:03.435Z,4.90
2019-02-19T21:49:49.547Z,4.80
2019-02-19T21:54:35.881Z,4.87
2019-02-19T21:59:23.184Z,5.20
2019-02-19T22:04:09.199Z,4.70
2019-02-19T22:08:55.261Z,5.30
2019-02-19T22:13:41.264Z,4.97
2019-02-19T22:18:27.257Z,5.93
2019-02-19T22:23:13.044Z,6.37
2019-02-19T22:27:58.925Z,5.67
2019-02-19T22:32:44.941Z,5.97
2019-02-19T22:37:31.211Z,5.27
2019-02-19T22:42:17.084Z,4.53
2019-02-19T22:47:03.501Z,4.93
2019-02-19T22:51:49.329Z,4.60
2019-02-19T22:56:38.329Z,5.40
2019-02-19T23:01:36.844Z,4.40
2019-02-19T23:06:22.815Z,4.80
2019-02-19T23:11:08.665Z,4.40
2019-02-19T23:15:54.459Z,5.50
2019-02-19T23:20:40.219Z,4.73
2019-02-19T23:25:26.171Z,4.83
2019-02-19T23:30:12.111Z,4.63
2019-02-19T23:35:15.793Z,4.50
2019-02-19T23:40:01.579Z,4.50
2019-02-19T23:44:47.300Z,4.90
2019-02-19T23:49:33.171Z,5.37
2019-02-19T23:54:18.935Z,5.43
2019-02-19T23:59:04.697Z,4.73
